sensor_id;sensor_type;location;lat;lon;timestamp;pressure;altitude;pressure_sealevel;temperature;humidity
76378;BME280;65200;49.500;8.654;2023-06-19T00:01:26;99858.97;;;22.39;46.82
76378;BME280;65200;49.500;8.654;2023-06-19T00:03:53;99858.97;;;22.34;46.73
76378;BME280;65200;49.500;8.654;2023-06-19T00:06:19;99859.53;;;22.31;47.42
76378;BME280;65200;49.500;8.654;2023-06-19T00:08:46;99861.97;;;22.32;46.58
76378;BME280;65200;49.500;8.654;2023-06-19T00:11:13;99868.50;;;22.36;47.71
76378;BME280;65200;49.500;8.654;2023-06-19T00:13:40;99872.91;;;22.27;47.98
76378;BME280;65200;49.500;8.654;2023-06-19T00:16:06;99875.94;;;22.21;48.12
76378;BME280;65200;49.500;8.654;2023-06-19T00:18:32;99869.16;;;22.13;48.36
76378;BME280;65200;49.500;8.654;2023-06-19T00:21:05;99862.00;;;22.22;49.13
76378;BME280;65200;49.500;8.654;2023-06-19T00:23:31;99862.03;;;22.17;48.50
76378;BME280;65200;49.500;8.654;2023-06-19T00:25:57;99864.22;;;22.10;46.94
76378;BME280;65200;49.500;8.654;2023-06-19T00:28:27;99872.69;;;22.14;46.90
76378;BME280;65200;49.500;8.654;2023-06-19T00:30:54;99875.97;;;22.11;47.16
76378;BME280;65200;49.500;8.654;2023-06-19T00:33:20;99880.88;;;22.09;46.49
76378;BME280;65200;49.500;8.654;2023-06-19T00:35:46;99879.22;;;22.23;45.28
76378;BME280;65200;49.500;8.654;2023-06-19T00:38:13;99886.31;;;22.14;45.30
76378;BME280;65200;49.500;8.654;2023-06-19T00:40:40;99886.09;;;22.05;46.45
76378;BME280;65200;49.500;8.654;2023-06-19T00:43:06;99875.47;;;21.99;46.25
76378;BME280;65200;49.500;8.654;2023-06-19T00:45:34;99870.31;;;21.92;47.13
76378;BME280;65200;49.500;8.654;2023-06-19T00:48:01;99870.31;;;21.87;47.04
76378;BME280;65200;49.500;8.654;2023-06-19T00:50:28;99883.69;;;21.79;48.12
76378;BME280;65200;49.500;8.654;2023-06-19T00:52:55;99882.84;;;21.83;48.27
76378;BME280;65200;49.500;8.654;2023-06-19T00:55:22;99887.47;;;21.72;47.75
76378;BME280;65200;49.500;8.654;2023-06-19T00:57:49;99893.47;;;21.69;47.19
76378;BME280;65200;49.500;8.654;2023-06-19T01:00:17;99900.00;;;21.73;47.31
76378;BME280;65200;49.500;8.654;2023-06-19T01:02:46;99910.13;;;21.58;48.13
76378;BME280;65200;49.500;8.654;2023-06-19T01:05:13;99901.09;;;21.42;48.55
76378;BME280;65200;49.500;8.654;2023-06-19T01:07:44;99906.00;;;21.40;49.16
76378;BME280;65200;49.500;8.654;2023-06-19T01:10:15;99898.63;;;21.26;48.97
76378;BME280;65200;49.500;8.654;2023-06-19T01:12:46;99899.19;;;21.28;49.73
76378;BME280;65200;49.500;8.654;2023-06-19T01:15:17;99907.63;;;21.21;49.33
76378;BME280;65200;49.500;8.654;2023-06-19T01:17:46;99902.97;;;21.07;49.80
76378;BME280;65200;49.500;8.654;2023-06-19T01:20:13;99903.22;;;21.00;50.39
76378;BME280;65200;49.500;8.654;2023-06-19T01:22:41;99902.69;;;21.08;50.43
76378;BME280;65200;49.500;8.654;2023-06-19T01:25:09;99907.59;;;21.11;50.88
76378;BME280;65200;49.500;8.654;2023-06-19T01:27:35;99912.03;;;21.72;51.90
76378;BME280;65200;49.500;8.654;2023-06-19T01:30:03;99919.13;;;21.94;51.42
76378;BME280;65200;49.500;8.654;2023-06-19T01:32:33;99930.53;;;22.21;51.34
76378;BME280;65200;49.500;8.654;2023-06-19T01:35:04;99936.78;;;22.31;51.91
76378;BME280;65200;49.500;8.654;2023-06-19T01:37:32;99942.00;;;22.28;51.92
76378;BME280;65200;49.500;8.654;2023-06-19T01:40:04;99950.44;;;22.31;52.59
76378;BME280;65200;49.500;8.654;2023-06-19T01:42:32;99931.63;;;22.25;53.19
76378;BME280;65200;49.500;8.654;2023-06-19T01:45:00;99933.22;;;22.41;52.79
76378;BME280;65200;49.500;8.654;2023-06-19T01:47:28;99940.31;;;22.37;53.31
76378;BME280;65200;49.500;8.654;2023-06-19T01:49:54;99943.06;;;22.42;53.97
76378;BME280;65200;49.500;8.654;2023-06-19T01:52:21;99967.88;;;22.50;54.13
76378;BME280;65200;49.500;8.654;2023-06-19T01:54:47;99975.28;;;22.40;53.43
76378;BME280;65200;49.500;8.654;2023-06-19T01:57:15;99963.00;;;22.42;54.45
76378;BME280;65200;49.500;8.654;2023-06-19T01:59:41;99976.66;;;22.37;53.73
76378;BME280;65200;49.500;8.654;2023-06-19T02:02:08;99980.47;;;22.31;54.51
76378;BME280;65200;49.500;8.654;2023-06-19T02:04:34;99978.28;;;22.28;54.65
76378;BME280;65200;49.500;8.654;2023-06-19T02:07:01;99978.31;;;22.23;54.80
76378;BME280;65200;49.500;8.654;2023-06-19T02:09:27;99983.75;;;22.23;54.71
76378;BME280;65200;49.500;8.654;2023-06-19T02:11:54;99982.97;;;22.13;54.70
76378;BME280;65200;49.500;8.654;2023-06-19T02:14:21;99982.97;;;22.13;55.31
76378;BME280;65200;49.500;8.654;2023-06-19T02:16:48;99978.06;;;22.20;55.20
76378;BME280;65200;49.500;8.654;2023-06-19T02:19:15;99982.13;;;22.22;54.48
76378;BME280;65200;49.500;8.654;2023-06-19T02:21:41;99973.13;;;22.17;55.24
76378;BME280;65200;49.500;8.654;2023-06-19T02:24:07;99984.03;;;22.22;55.22
76378;BME280;65200;49.500;8.654;2023-06-19T02:26:35;99979.69;;;22.26;55.23
76378;BME280;65200;49.500;8.654;2023-06-19T02:29:01;99988.69;;;22.26;55.54
76378;BME280;65200;49.500;8.654;2023-06-19T02:31:29;99984.03;;;22.22;54.56
76378;BME280;65200;49.500;8.654;2023-06-19T02:33:55;99979.13;;;22.24;55.59
76378;BME280;65200;49.500;8.654;2023-06-19T02:36:22;99987.31;;;22.19;55.85
76378;BME280;65200;49.500;8.654;2023-06-19T02:38:48;99989.50;;;22.27;54.71
76378;BME280;65200;49.500;8.654;2023-06-19T02:41:15;99993.63;;;22.19;56.02
76378;BME280;65200;49.500;8.654;2023-06-19T02:43:44;99999.63;;;22.26;55.36
76378;BME280;65200;49.500;8.654;2023-06-19T02:46:10;99997.97;;;22.20;55.20
76378;BME280;65200;49.500;8.654;2023-06-19T02:48:38;99996.91;;;22.16;56.02
76378;BME280;65200;49.500;8.654;2023-06-19T02:51:04;99990.59;;;22.16;55.31
76378;BME280;65200;49.500;8.654;2023-06-19T02:53:31;99994.16;;;22.16;55.57
76378;BME280;65200;49.500;8.654;2023-06-19T02:55:57;99997.16;;;22.25;55.61
76378;BME280;65200;49.500;8.654;2023-06-19T02:58:24;100010.81;;;22.10;56.38
76378;BME280;65200;49.500;8.654;2023-06-19T03:00:52;100021.19;;;22.13;56.31
76378;BME280;65200;49.500;8.654;2023-06-19T03:03:18;100024.75;;;22.18;57.14
76378;BME280;65200;49.500;8.654;2023-06-19T03:05:46;100046.31;;;22.10;57.27
76378;BME280;65200;49.500;8.654;2023-06-19T03:08:13;100047.38;;;22.14;57.30
76378;BME280;65200;49.500;8.654;2023-06-19T03:10:39;100053.38;;;22.11;58.06
76378;BME280;65200;49.500;8.654;2023-06-19T03:13:05;100054.22;;;22.06;57.88
76378;BME280;65200;49.500;8.654;2023-06-19T03:15:32;100047.38;;;22.04;59.02
76378;BME280;65200;49.500;8.654;2023-06-19T03:17:58;100065.41;;;21.95;59.07
76378;BME280;65200;49.500;8.654;2023-06-19T03:20:28;100076.56;;;21.88;59.57
76378;BME280;65200;49.500;8.654;2023-06-19T03:22:56;100074.59;;;21.68;60.29
76378;BME280;65200;49.500;8.654;2023-06-19T03:25:22;100075.66;;;21.52;62.85
76378;BME280;65200;49.500;8.654;2023-06-19T03:27:48;100077.22;;;21.33;64.28
76378;BME280;65200;49.500;8.654;2023-06-19T03:30:15;100082.09;;;21.26;64.91
76378;BME280;65200;49.500;8.654;2023-06-19T03:32:43;100087.78;;;21.15;65.97
76378;BME280;65200;49.500;8.654;2023-06-19T03:35:10;100085.78;;;21.00;66.16
76378;BME280;65200;49.500;8.654;2023-06-19T03:37:37;100093.69;;;21.02;66.58
76378;BME280;65200;49.500;8.654;2023-06-19T03:40:06;100101.50;;;20.93;66.98
76378;BME280;65200;49.500;8.654;2023-06-19T03:42:34;100102.59;;;20.92;66.23
76378;BME280;65200;49.500;8.654;2023-06-19T03:45:01;100112.38;;;20.88;67.96
76378;BME280;65200;49.500;8.654;2023-06-19T03:47:27;100109.31;;;20.75;67.55
76378;BME280;65200;49.500;8.654;2023-06-19T03:49:53;100116.09;;;20.72;68.18
76378;BME280;65200;49.500;8.654;2023-06-19T03:52:20;100110.72;;;20.82;67.44
76378;BME280;65200;49.500;8.654;2023-06-19T03:54:46;100116.69;;;20.79;68.07
76378;BME280;65200;49.500;8.654;2023-06-19T03:57:14;100114.19;;;20.73;68.24
76378;BME280;65200;49.500;8.654;2023-06-19T03:59:40;100113.13;;;20.79;68.21
76378;BME280;65200;49.500;8.654;2023-06-19T04:02:07;100117.03;;;20.88;68.14
76378;BME280;65200;49.500;8.654;2023-06-19T04:04:33;100114.06;;;20.94;68.02
76378;BME280;65200;49.500;8.654;2023-06-19T04:07:00;100112.16;;;20.95;67.94
76378;BME280;65200;49.500;8.654;2023-06-19T04:09:26;100105.34;;;20.92;67.89
76378;BME280;65200;49.500;8.654;2023-06-19T04:11:52;100123.03;;;20.95;67.94
76378;BME280;65200;49.500;8.654;2023-06-19T04:14:20;100128.25;;;20.96;67.89
76378;BME280;65200;49.500;8.654;2023-06-19T04:16:48;100122.34;;;21.04;67.07
76378;BME280;65200;49.500;8.654;2023-06-19T04:19:15;100138.44;;;21.06;66.55
76378;BME280;65200;49.500;8.654;2023-06-19T04:21:41;100127.78;;;21.04;67.02
76378;BME280;65200;49.500;8.654;2023-06-19T04:24:08;100137.66;;;21.15;66.96
76378;BME280;65200;49.500;8.654;2023-06-19T04:26:34;100131.97;;;21.22;66.17
76378;BME280;65200;49.500;8.654;2023-06-19T04:29:01;100133.91;;;21.31;66.26
76378;BME280;65200;49.500;8.654;2023-06-19T04:31:28;100130.00;;;21.12;67.54
76378;BME280;65200;49.500;8.654;2023-06-19T04:33:56;100135.47;;;21.12;67.13
76378;BME280;65200;49.500;8.654;2023-06-19T04:36:22;100137.41;;;21.22;66.58
76378;BME280;65200;49.500;8.654;2023-06-19T04:38:49;100138.72;;;21.14;67.68
76378;BME280;65200;49.500;8.654;2023-06-19T04:41:16;100147.72;;;21.15;67.38
76378;BME280;65200;49.500;8.654;2023-06-19T04:43:43;100142.53;;;21.13;67.50
76378;BME280;65200;49.500;8.654;2023-06-19T04:46:09;100146.13;;;21.19;66.94
76378;BME280;65200;49.500;8.654;2023-06-19T04:48:37;100146.41;;;21.17;67.52
76378;BME280;65200;49.500;8.654;2023-06-19T04:51:04;100145.91;;;21.25;67.00
76378;BME280;65200;49.500;8.654;2023-06-19T04:53:31;100149.19;;;21.32;66.75
76378;BME280;65200;49.500;8.654;2023-06-19T04:55:57;100149.44;;;21.31;67.07
76378;BME280;65200;49.500;8.654;2023-06-19T04:58:24;100143.56;;;21.54;66.01
76378;BME280;65200;49.500;8.654;2023-06-19T05:00:51;100165.13;;;21.60;65.88
76378;BME280;65200;49.500;8.654;2023-06-19T05:03:17;100150.06;;;21.43;66.76
76378;BME280;65200;49.500;8.654;2023-06-19T05:05:46;100162.03;;;21.37;66.50
76378;BME280;65200;49.500;8.654;2023-06-19T05:08:13;100161.44;;;21.30;67.35
76378;BME280;65200;49.500;8.654;2023-06-19T05:10:39;100159.28;;;21.32;67.48
76378;BME280;65200;49.500;8.654;2023-06-19T05:13:06;100145.16;;;21.50;66.63
76378;BME280;65200;49.500;8.654;2023-06-19T05:15:32;100139.72;;;21.45;66.96
76378;BME280;65200;49.500;8.654;2023-06-19T05:17:59;100143.25;;;21.45;66.65
76378;BME280;65200;49.500;8.654;2023-06-19T05:20:25;100152.53;;;21.44;67.42
76378;BME280;65200;49.500;8.654;2023-06-19T05:22:53;100154.75;;;21.57;66.16
76378;BME280;65200;49.500;8.654;2023-06-19T05:25:19;100148.69;;;21.45;67.20
76378;BME280;65200;49.500;8.654;2023-06-19T05:27:46;100153.63;;;21.48;67.11
76378;BME280;65200;49.500;8.654;2023-06-19T05:30:13;100149.34;;;21.67;66.39
76378;BME280;65200;49.500;8.654;2023-06-19T05:32:39;100152.59;;;21.59;65.98
76378;BME280;65200;49.500;8.654;2023-06-19T05:35:06;100155.88;;;21.66;66.19
76378;BME280;65200;49.500;8.654;2023-06-19T05:37:33;100157.78;;;21.66;67.20
76378;BME280;65200;49.500;8.654;2023-06-19T05:40:00;100153.94;;;21.62;67.28
76378;BME280;65200;49.500;8.654;2023-06-19T05:42:27;100162.47;;;21.75;65.92
76378;BME280;65200;49.500;8.654;2023-06-19T05:44:53;100158.13;;;21.80;65.83
76378;BME280;65200;49.500;8.654;2023-06-19T05:47:20;100158.13;;;21.80;65.92
76378;BME280;65200;49.500;8.654;2023-06-19T05:49:47;100159.22;;;21.79;65.82
76378;BME280;65200;49.500;8.654;2023-06-19T05:52:13;100169.81;;;21.75;66.67
76378;BME280;65200;49.500;8.654;2023-06-19T05:54:40;100174.78;;;21.83;66.29
76378;BME280;65200;49.500;8.654;2023-06-19T05:57:08;100167.16;;;21.85;65.54
76378;BME280;65200;49.500;8.654;2023-06-19T05:59:34;100175.94;;;22.02;65.97
76378;BME280;65200;49.500;8.654;2023-06-19T06:02:01;100177.59;;;22.08;65.71
76378;BME280;65200;49.500;8.654;2023-06-19T06:04:28;100179.78;;;22.16;65.45
76378;BME280;65200;49.500;8.654;2023-06-19T06:06:55;100179.78;;;22.11;65.33
76378;BME280;65200;49.500;8.654;2023-06-19T06:09:22;100172.97;;;22.29;65.61
76378;BME280;65200;49.500;8.654;2023-06-19T06:11:48;100170.78;;;22.21;65.32
76378;BME280;65200;49.500;8.654;2023-06-19T06:14:16;100172.97;;;22.19;66.00
76378;BME280;65200;49.500;8.654;2023-06-19T06:16:43;100174.63;;;22.30;65.08
76378;BME280;65200;49.500;8.654;2023-06-19T06:19:09;100177.88;;;22.17;65.58
76378;BME280;65200;49.500;8.654;2023-06-19T06:21:36;100185.28;;;22.26;65.13
76378;BME280;65200;49.500;8.654;2023-06-19T06:24:03;100174.34;;;22.26;65.37
76378;BME280;65200;49.500;8.654;2023-06-19T06:26:29;100166.41;;;22.30;66.00
76378;BME280;65200;49.500;8.654;2023-06-19T06:28:56;100164.25;;;22.32;64.88
76378;BME280;65200;49.500;8.654;2023-06-19T06:31:24;100174.09;;;22.43;65.08
76378;BME280;65200;49.500;8.654;2023-06-19T06:33:51;100163.47;;;22.61;64.57
76378;BME280;65200;49.500;8.654;2023-06-19T06:36:17;100167.03;;;22.57;64.22
76378;BME280;65200;49.500;8.654;2023-06-19T06:38:44;100166.75;;;22.63;65.27
76378;BME280;65200;49.500;8.654;2023-06-19T06:41:11;100169.47;;;22.78;64.57
76378;BME280;65200;49.500;8.654;2023-06-19T06:43:37;100175.75;;;22.94;63.43
76378;BME280;65200;49.500;8.654;2023-06-19T06:46:05;100171.91;;;22.85;63.72
76378;BME280;65200;49.500;8.654;2023-06-19T06:48:33;100177.63;;;23.08;63.90
76378;BME280;65200;49.500;8.654;2023-06-19T06:50:59;100190.19;;;23.25;63.35
76378;BME280;65200;49.500;8.654;2023-06-19T06:53:26;100180.34;;;23.34;62.63
76378;BME280;65200;49.500;8.654;2023-06-19T06:55:53;100183.31;;;23.42;62.91
76378;BME280;65200;49.500;8.654;2023-06-19T06:58:20;100181.63;;;23.61;63.17
76378;BME280;65200;49.500;8.654;2023-06-19T07:00:46;100186.63;;;23.39;62.40
76378;BME280;65200;49.500;8.654;2023-06-19T07:03:13;100193.47;;;23.17;63.05
76378;BME280;65200;49.500;8.654;2023-06-19T07:05:41;100177.63;;;23.08;62.77
76378;BME280;65200;49.500;8.654;2023-06-19T07:08:08;100188.28;;;23.10;62.86
76378;BME280;65200;49.500;8.654;2023-06-19T07:10:34;100191.03;;;23.20;63.74
76378;BME280;65200;49.500;8.654;2023-06-19T07:13:00;100194.81;;;23.39;62.61
76378;BME280;65200;49.500;8.654;2023-06-19T07:15:27;100186.09;;;23.17;62.65
76378;BME280;65200;49.500;8.654;2023-06-19T07:17:53;100192.06;;;23.44;62.08
76378;BME280;65200;49.500;8.654;2023-06-19T07:20:20;100192.63;;;23.46;61.67
76378;BME280;65200;49.500;8.654;2023-06-19T07:22:50;100196.91;;;23.67;61.37
76378;BME280;65200;49.500;8.654;2023-06-19T07:25:17;100203.06;;;24.47;59.44
76378;BME280;65200;49.500;8.654;2023-06-19T07:27:44;100207.56;;;24.71;57.42
76378;BME280;65200;49.500;8.654;2023-06-19T07:30:11;100205.28;;;25.12;57.37
76378;BME280;65200;49.500;8.654;2023-06-19T07:32:37;100210.03;;;25.30;55.83
76378;BME280;65200;49.500;8.654;2023-06-19T07:35:05;100214.47;;;24.64;59.01
76378;BME280;65200;49.500;8.654;2023-06-19T07:37:32;100220.75;;;24.69;59.06
76378;BME280;65200;49.500;8.654;2023-06-19T07:40:00;100226.19;;;24.30;59.23
76378;BME280;65200;49.500;8.654;2023-06-19T07:42:27;100205.81;;;24.47;58.98
76378;BME280;65200;49.500;8.654;2023-06-19T07:44:53;100222.59;;;24.35;58.71
76378;BME280;65200;49.500;8.654;2023-06-19T07:47:20;100221.28;;;24.66;58.53
76378;BME280;65200;49.500;8.654;2023-06-19T07:49:46;100227.38;;;25.54;56.55
76378;BME280;65200;49.500;8.654;2023-06-19T07:52:13;100227.84;;;26.08;54.15
76378;BME280;65200;49.500;8.654;2023-06-19T07:54:49;100221.75;;;26.48;52.93
76378;BME280;65200;49.500;8.654;2023-06-19T07:57:17;100229.31;;;26.56;52.74
76378;BME280;65200;49.500;8.654;2023-06-19T07:59:44;100230.69;;;26.59;52.88
76378;BME280;65200;49.500;8.654;2023-06-19T08:02:11;100224.50;;;25.88;54.57
76378;BME280;65200;49.500;8.654;2023-06-19T08:04:37;100231.22;;;26.00;54.75
76378;BME280;65200;49.500;8.654;2023-06-19T08:07:04;100241.28;;;26.84;52.79
76378;BME280;65200;49.500;8.654;2023-06-19T08:09:31;100249.75;;;26.87;53.21
76378;BME280;65200;49.500;8.654;2023-06-19T08:11:57;100251.16;;;27.49;50.74
76378;BME280;65200;49.500;8.654;2023-06-19T08:14:25;100243.41;;;27.06;50.74
76378;BME280;65200;49.500;8.654;2023-06-19T08:16:52;100243.31;;;26.78;52.34
76378;BME280;65200;49.500;8.654;2023-06-19T08:19:18;100253.09;;;26.10;53.10
76378;BME280;65200;49.500;8.654;2023-06-19T08:21:45;100250.22;;;25.49;55.38
76378;BME280;65200;49.500;8.654;2023-06-19T08:24:11;100252.84;;;25.59;55.63
76378;BME280;65200;49.500;8.654;2023-06-19T08:26:37;100252.63;;;26.03;54.92
76378;BME280;65200;49.500;8.654;2023-06-19T08:29:04;100251.50;;;26.65;54.09
76378;BME280;65200;49.500;8.654;2023-06-19T08:31:32;100250.38;;;26.66;53.46
76378;BME280;65200;49.500;8.654;2023-06-19T08:33:59;100247.97;;;26.59;53.38
76378;BME280;65200;49.500;8.654;2023-06-19T08:36:25;100259.69;;;26.09;55.25
76378;BME280;65200;49.500;8.654;2023-06-19T08:38:52;100259.41;;;25.87;56.12
76378;BME280;65200;49.500;8.654;2023-06-19T08:41:18;100257.78;;;25.29;57.17
76378;BME280;65200;49.500;8.654;2023-06-19T08:43:45;100261.44;;;25.19;57.22
76378;BME280;65200;49.500;8.654;2023-06-19T08:46:15;100262.06;;;25.11;57.33
76378;BME280;65200;49.500;8.654;2023-06-19T08:48:44;100257.50;;;25.02;57.16
76378;BME280;65200;49.500;8.654;2023-06-19T08:51:12;100253.66;;;25.03;57.99
76378;BME280;65200;49.500;8.654;2023-06-19T08:53:44;100258.19;;;24.84;58.67
76378;BME280;65200;49.500;8.654;2023-06-19T08:56:11;100254.09;;;24.81;58.14
76378;BME280;65200;49.500;8.654;2023-06-19T08:58:38;100255.28;;;25.32;57.08
76378;BME280;65200;49.500;8.654;2023-06-19T09:01:05;100261.44;;;25.53;56.97
76378;BME280;65200;49.500;8.654;2023-06-19T09:03:32;100264.94;;;25.82;54.81
76378;BME280;65200;49.500;8.654;2023-06-19T09:06:02;100266.25;;;26.13;54.04
76378;BME280;65200;49.500;8.654;2023-06-19T09:08:29;100277.75;;;25.39;56.42
76378;BME280;65200;49.500;8.654;2023-06-19T09:10:57;100278.78;;;25.15;56.99
76378;BME280;65200;49.500;8.654;2023-06-19T09:13:23;100278.69;;;25.25;56.73
76378;BME280;65200;49.500;8.654;2023-06-19T09:15:58;100274.56;;;25.56;56.34
76378;BME280;65200;49.500;8.654;2023-06-19T09:18:25;100281.50;;;25.48;56.05
76378;BME280;65200;49.500;8.654;2023-06-19T09:20:52;100272.06;;;25.83;55.64
76378;BME280;65200;49.500;8.654;2023-06-19T09:23:20;100273.06;;;26.16;54.05
76378;BME280;65200;49.500;8.654;2023-06-19T09:25:48;100266.06;;;26.65;53.15
76378;BME280;65200;49.500;8.654;2023-06-19T09:28:19;100254.13;;;26.14;53.28
76378;BME280;65200;49.500;8.654;2023-06-19T09:30:56;100262.22;;;26.24;53.46
76378;BME280;65200;49.500;8.654;2023-06-19T09:33:25;100253.13;;;26.47;52.94
76378;BME280;65200;49.500;8.654;2023-06-19T09:35:53;100271.31;;;26.99;53.27
76378;BME280;65200;49.500;8.654;2023-06-19T09:38:24;100251.31;;;26.93;51.39
76378;BME280;65200;49.500;8.654;2023-06-19T09:40:51;100272.81;;;26.91;51.89
76378;BME280;65200;49.500;8.654;2023-06-19T09:43:21;100265.41;;;27.06;51.41
76378;BME280;65200;49.500;8.654;2023-06-19T09:45:49;100258.81;;;27.52;50.36
76378;BME280;65200;49.500;8.654;2023-06-19T09:48:19;100261.38;;;27.62;50.18
76378;BME280;65200;49.500;8.654;2023-06-19T09:50:48;100258.25;;;27.05;51.43
76378;BME280;65200;49.500;8.654;2023-06-19T09:53:17;100258.63;;;26.84;51.12
76378;BME280;65200;49.500;8.654;2023-06-19T09:55:46;100252.88;;;26.62;53.20
76378;BME280;65200;49.500;8.654;2023-06-19T09:58:15;100250.13;;;26.44;53.07
76378;BME280;65200;49.500;8.654;2023-06-19T10:00:42;100247.75;;;26.56;52.79
76378;BME280;65200;49.500;8.654;2023-06-19T10:03:11;100263.31;;;27.48;50.55
76378;BME280;65200;49.500;8.654;2023-06-19T10:05:38;100253.16;;;28.03;48.32
76378;BME280;65200;49.500;8.654;2023-06-19T10:08:05;100255.59;;;28.18;49.19
76378;BME280;65200;49.500;8.654;2023-06-19T10:10:32;100254.34;;;28.10;49.65
76378;BME280;65200;49.500;8.654;2023-06-19T10:13:11;100252.63;;;27.47;50.57
76378;BME280;65200;49.500;8.654;2023-06-19T10:15:40;100255.06;;;27.48;50.18
76378;BME280;65200;49.500;8.654;2023-06-19T10:18:07;100255.94;;;27.30;51.38
76378;BME280;65200;49.500;8.654;2023-06-19T10:20:35;100255.06;;;27.75;49.67
76378;BME280;65200;49.500;8.654;2023-06-19T10:23:05;100256.22;;;28.15;49.01
76378;BME280;65200;49.500;8.654;2023-06-19T10:25:33;100250.81;;;28.59;47.11
76378;BME280;65200;49.500;8.654;2023-06-19T10:28:02;100248.47;;;28.88;48.20
76378;BME280;65200;49.500;8.654;2023-06-19T10:30:31;100240.00;;;29.37;46.26
76378;BME280;65200;49.500;8.654;2023-06-19T10:32:59;100244.44;;;29.16;46.20
76378;BME280;65200;49.500;8.654;2023-06-19T10:35:29;100245.13;;;29.22;46.05
76378;BME280;65200;49.500;8.654;2023-06-19T10:37:55;100236.97;;;29.70;44.23
76378;BME280;65200;49.500;8.654;2023-06-19T10:40:22;100239.16;;;29.28;44.56
76378;BME280;65200;49.500;8.654;2023-06-19T10:42:48;100232.75;;;29.41;45.21
76378;BME280;65200;49.500;8.654;2023-06-19T10:45:16;100232.47;;;29.91;44.92
76378;BME280;65200;49.500;8.654;2023-06-19T10:47:43;100230.97;;;30.32;43.12
76378;BME280;65200;49.500;8.654;2023-06-19T10:50:11;100227.06;;;30.42;42.51
76378;BME280;65200;49.500;8.654;2023-06-19T10:52:42;100233.91;;;30.70;42.06
76378;BME280;65200;49.500;8.654;2023-06-19T10:55:10;100226.09;;;30.29;42.12
76378;BME280;65200;49.500;8.654;2023-06-19T10:57:38;100222.31;;;30.25;43.61
76378;BME280;65200;49.500;8.654;2023-06-19T11:00:06;100215.13;;;30.16;43.43
76378;BME280;65200;49.500;8.654;2023-06-19T11:02:39;100209.31;;;30.26;41.41
76378;BME280;65200;49.500;8.654;2023-06-19T11:05:08;100217.72;;;29.65;43.85
76378;BME280;65200;49.500;8.654;2023-06-19T11:07:35;100207.16;;;30.14;43.29
76378;BME280;65200;49.500;8.654;2023-06-19T11:10:01;100211.09;;;31.07;42.68
76378;BME280;65200;49.500;8.654;2023-06-19T11:12:28;100211.09;;;30.22;41.58
76378;BME280;65200;49.500;8.654;2023-06-19T11:14:55;100204.59;;;30.69;40.60
76378;BME280;65200;49.500;8.654;2023-06-19T11:17:22;100199.50;;;31.05;40.23
76378;BME280;65200;49.500;8.654;2023-06-19T11:19:50;100187.34;;;30.72;41.03
76378;BME280;65200;49.500;8.654;2023-06-19T11:22:17;100196.13;;;30.74;41.27
76378;BME280;65200;49.500;8.654;2023-06-19T11:24:44;100187.38;;;30.38;42.93
76378;BME280;65200;49.500;8.654;2023-06-19T11:27:21;100186.34;;;30.17;43.41
76378;BME280;65200;49.500;8.654;2023-06-19T11:29:55;100172.72;;;30.29;43.08
76378;BME280;65200;49.500;8.654;2023-06-19T11:32:21;100175.97;;;30.22;41.50
76378;BME280;65200;49.500;8.654;2023-06-19T11:34:53;100167.19;;;30.46;41.92
76378;BME280;65200;49.500;8.654;2023-06-19T11:37:19;100167.94;;;30.12;42.24
76378;BME280;65200;49.500;8.654;2023-06-19T11:39:47;100174.75;;;29.98;41.94
76378;BME280;65200;49.500;8.654;2023-06-19T11:42:14;100172.00;;;29.98;42.15
76378;BME280;65200;49.500;8.654;2023-06-19T11:45:01;100169.22;;;29.98;43.19
76378;BME280;65200;49.500;8.654;2023-06-19T11:47:31;100162.13;;;30.48;43.32
76378;BME280;65200;49.500;8.654;2023-06-19T11:49:59;100160.69;;;30.42;41.63
76378;BME280;65200;49.500;8.654;2023-06-19T11:52:26;100164.53;;;30.07;42.17
76378;BME280;65200;49.500;8.654;2023-06-19T11:54:52;100169.44;;;30.10;42.91
76378;BME280;65200;49.500;8.654;2023-06-19T11:57:19;100167.69;;;30.39;42.05
76378;BME280;65200;49.500;8.654;2023-06-19T11:59:45;100165.84;;;30.95;40.65
76378;BME280;65200;49.500;8.654;2023-06-19T12:02:12;100169.16;;;31.34;39.63
76378;BME280;65200;49.500;8.654;2023-06-19T12:04:38;100168.78;;;30.72;40.52
76378;BME280;65200;49.500;8.654;2023-06-19T12:07:06;100172.06;;;30.49;40.94
76378;BME280;65200;49.500;8.654;2023-06-19T12:09:33;100170.78;;;30.38;40.95
76378;BME280;65200;49.500;8.654;2023-06-19T12:12:00;100176.34;;;29.73;41.26
76378;BME280;65200;49.500;8.654;2023-06-19T12:14:26;100172.47;;;29.83;43.02
76378;BME280;65200;49.500;8.654;2023-06-19T12:16:53;100171.03;;;30.02;41.08
76378;BME280;65200;49.500;8.654;2023-06-19T12:19:19;100167.78;;;30.17;41.94
76378;BME280;65200;49.500;8.654;2023-06-19T12:21:46;100161.56;;;29.78;42.21
76378;BME280;65200;49.500;8.654;2023-06-19T12:24:14;100167.53;;;30.36;42.13
76378;BME280;65200;49.500;8.654;2023-06-19T12:26:40;100163.28;;;30.30;41.55
76378;BME280;65200;49.500;8.654;2023-06-19T12:29:07;100164.50;;;29.90;42.20
76378;BME280;65200;49.500;8.654;2023-06-19T12:31:34;100162.47;;;30.38;42.57
76378;BME280;65200;49.500;8.654;2023-06-19T12:34:01;100162.09;;;30.14;41.75
76378;BME280;65200;49.500;8.654;2023-06-19T12:36:27;100165.94;;;29.70;41.22
76378;BME280;65200;49.500;8.654;2023-06-19T12:38:54;100161.63;;;29.55;41.81
76378;BME280;65200;49.500;8.654;2023-06-19T12:41:21;100158.97;;;29.81;41.04
76378;BME280;65200;49.500;8.654;2023-06-19T12:43:48;100151.84;;;30.14;42.83
76378;BME280;65200;49.500;8.654;2023-06-19T12:46:15;100152.88;;;30.44;41.05
76378;BME280;65200;49.500;8.654;2023-06-19T12:48:41;100147.78;;;30.03;40.94
76378;BME280;65200;49.500;8.654;2023-06-19T12:51:08;100150.59;;;30.46;42.01
76378;BME280;65200;49.500;8.654;2023-06-19T12:53:35;100147.81;;;30.63;40.54